Erin, Canada
Current Conditions -  °F | °C
As of 7:00 AM on Thursday 29 Jan 2015 (Local Time) from CYYZ Reporting Station
Overcast Overcast  
Wind Chill: 17°   Ceiling: 6500
Heat Index: 27°   Visibility: 15mi
Dew Point: 14°   Wind: 9mph
Humidity: 59%   Direction: 140°SE
Pressure: 30.07"   Gusts: NA
Location:  43.77°N, 80.07°W
Report Text: CYYZ 291200Z 14008KT 15SM OVC065 M03/M10 A3007 RMK SC8 PRESFR SLP191
Loading
Personal Weather Stations






























Interactive Weather Map New forecast layout! Learn more

10-Day Weather Forecast

Advertisements
Track Severe Weather on mobile